Time;durP1;ratioP1;P1;durP2;ratioP2;P2;SDS_P1;SDS_P2;PMS_P1;PMS_P2;Temp;Humidity;BMP_temperature;BMP_pressure;BME280_temperature;BME280_humidity;BME280_pressure;Samples;Min_cycle;Max_cycle;Signal;HPM_P1;HPM_P2
2021/12/31 00:00:05;;;;;;;9.98;2.67;;;12.90;99.90;;;;;;4995117;28;20435;-89
2021/12/31 00:02:38;;;;;;;15.50;3.53;;;12.90;99.90;;;;;;4994981;28;20045;-88
2021/12/31 00:05:07;;;;;;;16.02;2.70;;;12.70;99.90;;;;;;4994637;28;20080;-88
2021/12/31 00:07:33;;;;;;;12.40;3.08;;;12.40;99.90;;;;;;4994019;28;20053;-87
2021/12/31 00:10:00;;;;;;;14.90;3.38;;;12.00;99.90;;;;;;4994952;28;20103;-88
2021/12/31 00:12:28;;;;;;;13.90;2.83;;;12.80;99.90;;;;;;4994891;28;20041;-87
2021/12/31 00:14:54;;;;;;;17.25;3.55;;;13.80;99.90;;;;;;4994721;28;20046;-88
2021/12/31 00:17:24;;;;;;;8.18;3.15;;;12.70;99.90;;;;;;4995775;28;20049;-87
2021/12/31 00:20:03;;;;;;;9.52;2.95;;;12.50;99.90;;;;;;4994578;28;20848;-88
2021/12/31 00:25:16;;;;;;;13.25;2.63;;;13.70;99.90;;;;;;5011017;28;20099;-88
2021/12/31 00:27:42;;;;;;;15.68;2.85;;;12.50;99.90;;;;;;4994551;28;20139;-87
2021/12/31 00:30:09;;;;;;;12.98;2.90;;;11.80;99.90;;;;;;4994879;28;20061;-87
2021/12/31 00:32:35;;;;;;;11.93;2.95;;;12.70;99.90;;;;;;4994635;28;20049;-87
2021/12/31 00:35:01;;;;;;;10.38;3.05;;;12.70;99.90;;;;;;4994469;28;20126;-87
2021/12/31 00:37:36;;;;;;;14.07;3.28;;;12.70;99.90;;;;;;4994670;28;20049;-87
2021/12/31 00:40:05;;;;;;;14.57;2.58;;;13.20;99.90;;;;;;4994307;28;20060;-87
2021/12/31 00:42:31;;;;;;;12.38;2.10;;;12.70;99.90;;;;;;4994335;28;20136;-88
2021/12/31 00:44:57;;;;;;;13.65;2.40;;;13.10;99.90;;;;;;4995187;28;20540;-87
2021/12/31 00:47:23;;;;;;;15.52;3.03;;;12.70;99.90;;;;;;4994245;28;20495;-87
2021/12/31 00:49:48;;;;;;;11.07;2.50;;;13.00;99.90;;;;;;4994163;28;20041;-87
2021/12/31 00:52:15;;;;;;;13.07;2.53;;;13.30;99.90;;;;;;4993940;28;20052;-87
2021/12/31 00:54:41;;;;;;;10.45;2.78;;;12.40;99.90;;;;;;4994182;28;20057;-88
2021/12/31 00:57:07;;;;;;;16.98;3.15;;;12.40;99.90;;;;;;4994010;28;20403;-87
2021/12/31 00:59:35;;;;;;;21.85;4.18;;;12.70;99.90;;;;;;4993761;28;20045;-87
2021/12/31 01:02:07;;;;;;;22.20;3.15;;;13.30;99.90;;;;;;4993915;28;20049;-88
2021/12/31 01:04:33;;;;;;;15.38;3.58;;;12.60;99.90;;;;;;4994090;28;20407;-87
2021/12/31 01:07:01;;;;;;;19.50;3.70;;;12.30;99.90;;;;;;4993434;28;20064;-87
2021/12/31 01:09:29;;;;;;;13.70;3.30;;;13.10;99.90;;;;;;4994962;28;20049;-87
2021/12/31 01:11:56;;;;;;;23.45;4.65;;;12.40;99.90;;;;;;4997961;28;20049;-87
2021/12/31 01:14:40;;;;;;;13.60;3.53;;;12.60;99.90;;;;;;4998244;28;20118;-87
2021/12/31 01:17:11;;;;;;;17.45;4.45;;;13.00;99.90;;;;;;4997815;28;20115;-87
2021/12/31 01:19:46;;;;;;;16.67;3.53;;;13.60;99.90;;;;;;4997783;28;20080;-87
2021/12/31 01:22:18;;;;;;;14.15;3.10;;;11.60;99.90;;;;;;4997421;28;20495;-87
2021/12/31 01:24:44;;;;;;;18.05;3.10;;;13.20;99.90;;;;;;4997888;28;20052;-87
2021/12/31 01:27:14;;;;;;;20.13;3.72;;;12.20;99.90;;;;;;4997909;28;20436;-88
2021/12/31 01:29:40;;;;;;;14.75;3.80;;;12.40;99.90;;;;;;4997910;28;20079;-87
2021/12/31 01:32:09;;;;;;;17.00;2.97;;;12.70;99.90;;;;;;4997545;28;20624;-87
2021/12/31 01:34:35;;;;;;;16.48;3.55;;;12.50;99.90;;;;;;4997917;28;20037;-87
2021/12/31 01:37:02;;;;;;;16.70;3.35;;;13.60;99.90;;;;;;4996899;28;20114;-87
2021/12/31 01:39:31;;;;;;;20.05;4.20;;;12.50;99.90;;;;;;4997024;28;20053;-88
2021/12/31 01:41:59;;;;;;;17.98;3.95;;;12.40;99.90;;;;;;4997785;28;20615;-87
2021/12/31 01:44:34;;;;;;;17.80;3.95;;;12.30;99.90;;;;;;4997267;28;20407;-87
2021/12/31 01:47:04;;;;;;;17.90;4.43;;;13.30;99.90;;;;;;4997119;28;20041;-86
2021/12/31 01:49:36;;;;;;;22.10;3.70;;;13.40;99.90;;;;;;4997126;28;20111;-86
2021/12/31 01:52:07;;;;;;;17.15;3.97;;;13.10;99.90;;;;;;4996829;28;20041;-86
2021/12/31 01:54:35;;;;;;;10.98;3.70;;;12.40;99.90;;;;;;4997159;28;20507;-86
2021/12/31 01:57:02;;;;;;;16.80;4.45;;;12.10;99.90;;;;;;4997022;28;20053;-87
2021/12/31 01:59:29;;;;;;;20.15;2.80;;;12.40;99.90;;;;;;4996955;28;20508;-87
2021/12/31 02:01:56;;;;;;;15.50;3.55;;;13.00;99.90;;;;;;4995480;28;20112;-86
2021/12/31 02:04:22;;;;;;;31.65;5.05;;;12.90;99.90;;;;;;4995408;28;20053;-87
2021/12/31 02:06:48;;;;;;;15.68;3.28;;;13.00;99.90;;;;;;4995738;28;20555;-86
2021/12/31 02:09:14;;;;;;;20.30;3.97;;;12.50;99.90;;;;;;4995545;28;20056;-86
2021/12/31 02:11:40;;;;;;;21.83;4.00;;;13.50;99.90;;;;;;4995451;28;20108;-88
2021/12/31 02:14:08;;;;;;;17.70;3.40;;;12.80;99.90;;;;;;4995423;28;20060;-88
2021/12/31 02:16:34;;;;;;;24.05;3.63;;;11.50;99.90;;;;;;4995413;28;20149;-86
2021/12/31 02:19:14;;;;;;;16.48;3.92;;;12.80;99.90;;;;;;4995369;28;20113;-86
2021/12/31 02:21:49;;;;;;;21.40;4.03;;;11.90;99.90;;;;;;4995046;28;20500;-85
2021/12/31 02:24:17;;;;;;;13.13;2.92;;;12.70;99.90;;;;;;4995312;28;20045;-87
2021/12/31 02:26:42;;;;;;;16.98;4.53;;;12.50;99.90;;;;;;4995222;28;20052;-86
2021/12/31 02:29:09;;;;;;;11.73;2.65;;;12.70;99.90;;;;;;4995135;28;20080;-87
2021/12/31 02:31:35;;;;;;;17.52;3.80;;;12.90;99.90;;;;;;4995247;28;20061;-86
2021/12/31 02:34:00;;;;;;;11.93;3.20;;;13.60;99.90;;;;;;4995507;28;20049;-86
2021/12/31 02:36:26;;;;;;;14.15;3.65;;;13.20;99.90;;;;;;4995173;28;20056;-86
2021/12/31 02:38:52;;;;;;;11.38;3.47;;;12.00;99.90;;;;;;4995549;28;20559;-86
2021/12/31 02:41:18;;;;;;;15.32;2.63;;;12.60;99.90;;;;;;4995815;28;20107;-87
2021/12/31 02:43:44;;;;;;;14.50;3.10;;;12.40;99.90;;;;;;4996530;28;20064;-86
2021/12/31 02:46:10;;;;;;;11.25;3.60;;;13.10;99.90;;;;;;4997242;28;20053;-86
2021/12/31 02:48:36;;;;;;;11.68;3.25;;;13.30;99.90;;;;;;4997022;28;20049;-85
2021/12/31 02:51:02;;;;;;;10.38;2.92;;;12.70;99.90;;;;;;4997805;28;20046;-86
2021/12/31 02:53:37;;;;;;;15.52;3.15;;;13.60;99.90;;;;;;5012173;28;20049;-86
2021/12/31 02:56:07;;;;;;;13.00;2.97;;;12.70;99.90;;;;;;5013079;28;20033;-88
2021/12/31 02:58:33;;;;;;;11.63;2.80;;;12.70;99.90;;;;;;5010959;28;20045;-87
2021/12/31 03:00:59;;;;;;;9.40;2.45;;;13.80;99.90;;;;;;4900060;28;2870038;-86
2021/12/31 03:03:25;;;;;;;12.30;2.97;;;13.40;99.90;;;;;;4997559;28;20467;-86
2021/12/31 03:05:54;;;;;;;11.32;2.95;;;12.60;99.90;;;;;;4996950;28;20049;-85
2021/12/31 03:08:23;;;;;;;14.32;3.13;;;12.60;99.90;;;;;;4996711;28;20399;-85
2021/12/31 03:10:50;;;;;;;9.55;2.83;;;12.90;99.90;;;;;;4996112;28;20061;-87
2021/12/31 03:13:16;;;;;;;14.13;3.70;;;12.90;99.90;;;;;;4995919;28;20399;-86
2021/12/31 03:15:46;;;;;;;9.68;2.97;;;14.00;99.90;;;;;;4995843;28;20660;-87
2021/12/31 03:18:12;;;;;;;13.93;3.45;;;13.20;99.90;;;;;;4995748;28;20049;-85
2021/12/31 03:20:57;;;;;;;10.35;2.67;;;13.00;99.90;;;;;;4995450;28;20050;-86
2021/12/31 03:23:26;;;;;;;7.85;2.67;;;12.40;99.90;;;;;;4995600;28;20049;-86
2021/12/31 03:25:52;;;;;;;12.30;3.03;;;13.10;99.90;;;;;;4995276;28;20130;-86
2021/12/31 03:28:19;;;;;;;8.38;2.42;;;13.30;99.90;;;;;;4995586;28;20045;-86
2021/12/31 03:30:47;;;;;;;13.95;3.03;;;13.00;99.90;;;;;;4995324;28;20053;-87
2021/12/31 03:33:16;;;;;;;16.00;2.90;;;13.00;99.90;;;;;;4994646;28;20050;-86
2021/12/31 03:35:42;;;;;;;7.47;2.25;;;13.10;99.90;;;;;;4995027;28;20049;-86
2021/12/31 03:38:08;;;;;;;10.80;2.88;;;13.30;99.90;;;;;;4995089;28;20107;-86
2021/12/31 03:40:35;;;;;;;10.10;3.00;;;13.40;99.90;;;;;;4996738;28;20119;-86
2021/12/31 03:43:01;;;;;;;7.78;2.60;;;13.30;99.90;;;;;;5009413;28;20053;-87
2021/12/31 03:45:27;;;;;;;9.10;2.63;;;14.10;99.90;;;;;;5009408;28;20037;-87
2021/12/31 03:47:53;;;;;;;15.90;2.97;;;13.10;99.90;;;;;;5009585;28;20053;-86
2021/12/31 03:50:19;;;;;;;11.52;2.17;;;13.00;99.90;;;;;;4996529;28;20143;-86
2021/12/31 03:52:45;;;;;;;8.00;2.72;;;13.10;99.90;;;;;;4996049;28;20053;-86
2021/12/31 03:55:11;;;;;;;6.35;2.13;;;13.90;99.90;;;;;;4995946;28;20056;-85
2021/12/31 03:57:38;;;;;;;10.25;2.15;;;12.80;99.90;;;;;;4995661;28;20049;-86
2021/12/31 04:00:05;;;;;;;12.07;2.80;;;12.50;99.90;;;;;;4995060;28;20092;-86
2021/12/31 04:02:32;;;;;;;10.80;2.40;;;12.90;99.90;;;;;;4994784;28;20045;-86
2021/12/31 04:05:01;;;;;;;7.68;2.10;;;14.00;99.90;;;;;;4995432;28;20053;-87
2021/12/31 04:07:27;;;;;;;12.65;2.47;;;13.00;99.90;;;;;;4994755;28;20135;-86
2021/12/31 04:09:53;;;;;;;10.38;2.20;;;13.30;99.90;;;;;;4994221;28;20049;-86
2021/12/31 04:12:19;;;;;;;7.82;3.00;;;13.50;99.90;;;;;;4994420;28;20042;-86
2021/12/31 04:14:45;;;;;;;8.02;2.15;;;12.90;99.90;;;;;;4994728;28;20050;-85
2021/12/31 04:17:11;;;;;;;7.95;2.28;;;12.90;99.90;;;;;;4994510;28;20123;-85
2021/12/31 04:19:37;;;;;;;9.05;2.15;;;13.70;99.90;;;;;;4993860;28;20054;-86
2021/12/31 04:22:03;;;;;;;11.35;2.70;;;13.60;99.90;;;;;;4994491;28;20060;-85
2021/12/31 04:27:11;;;;;;;9.48;1.98;;;13.40;99.90;;;;;;5010676;28;20065;-86
2021/12/31 04:29:39;;;;;;;10.95;2.28;;;14.40;99.90;;;;;;4994063;28;20515;-85
2021/12/31 04:32:06;;;;;;;9.50;2.67;;;13.70;99.90;;;;;;4993981;28;20046;-86
2021/12/31 04:34:33;;;;;;;10.77;2.15;;;13.10;99.90;;;;;;4994465;28;20103;-86
2021/12/31 04:36:59;;;;;;;9.68;2.10;;;13.50;99.90;;;;;;4994034;28;20053;-87
2021/12/31 04:39:28;;;;;;;4.10;1.35;;;13.10;99.90;;;;;;4994004;28;20045;-86
2021/12/31 04:42:11;;;;;;;7.00;2.00;;;13.50;99.90;;;;;;4994416;28;20068;-86
2021/12/31 04:45:01;;;;;;;8.80;3.03;;;13.10;99.90;;;;;;4995112;28;20060;-86
2021/12/31 04:47:26;;;;;;;7.07;2.05;;;13.10;99.90;;;;;;4993138;28;20065;-86
2021/12/31 04:49:52;;;;;;;8.18;2.10;;;13.60;99.90;;;;;;4993931;28;20053;-86
2021/12/31 04:52:32;;;;;;;12.98;1.85;;;12.80;99.90;;;;;;4993783;28;20049;-86
2021/12/31 04:55:14;;;;;;;6.97;3.00;;;13.10;99.90;;;;;;4994455;28;20046;-86
2021/12/31 04:58:05;;;;;;;7.55;2.78;;;12.20;99.90;;;;;;4993748;28;20127;-85
2021/12/31 05:00:52;;;;;;;10.55;2.40;;;12.90;99.90;;;;;;4993757;28;20057;-86
2021/12/31 05:03:31;;;;;;;5.78;2.53;;;13.10;99.90;;;;;;4994019;28;20482;-86
2021/12/31 05:06:05;;;;;;;8.52;2.28;;;13.60;99.90;;;;;;4993753;28;20056;-86
2021/12/31 05:08:31;;;;;;;7.80;1.85;;;13.70;99.90;;;;;;4993513;28;20553;-86
2021/12/31 05:10:57;;;;;;;4.95;2.05;;;13.20;99.90;;;;;;4993830;28;20053;-86
2021/12/31 05:13:23;;;;;;;7.70;2.38;;;13.90;99.90;;;;;;4993660;28;20053;-86
2021/12/31 05:16:02;;;;;;;6.13;2.33;;;12.50;99.90;;;;;;4994617;28;20053;-86
2021/12/31 05:18:31;;;;;;;6.85;2.85;;;13.00;99.90;;;;;;4994408;28;20196;-87
2021/12/31 05:20:57;;;;;;;9.13;3.03;;;13.70;99.90;;;;;;4993694;28;20562;-86
2021/12/31 05:23:23;;;;;;;9.30;3.13;;;13.10;99.90;;;;;;4994216;28;20057;-86
2021/12/31 05:25:50;;;;;;;8.80;3.55;;;13.00;99.90;;;;;;4993292;28;20042;-87
2021/12/31 05:28:16;;;;;;;9.48;3.95;;;13.30;99.90;;;;;;4993766;28;20049;-85
2021/12/31 05:30:42;;;;;;;11.65;3.47;;;13.60;99.90;;;;;;4993624;28;20044;-86
2021/12/31 05:33:08;;;;;;;9.95;3.17;;;13.10;99.90;;;;;;4993796;28;20053;-87
2021/12/31 05:35:34;;;;;;;10.90;3.10;;;13.00;99.90;;;;;;4993803;28;20052;-87
2021/12/31 05:38:06;;;;;;;9.00;3.13;;;13.90;99.90;;;;;;4994564;28;20057;-86
2021/12/31 05:40:32;;;;;;;8.40;3.10;;;13.10;99.90;;;;;;4993753;28;20049;-86
2021/12/31 05:43:00;;;;;;;7.70;2.83;;;12.70;99.90;;;;;;4993738;28;20064;-86
2021/12/31 05:45:34;;;;;;;11.10;3.30;;;13.00;99.90;;;;;;4994344;28;20108;-86
2021/12/31 05:48:08;;;;;;;9.70;3.35;;;13.50;99.90;;;;;;4993484;28;20128;-86
2021/12/31 05:50:42;;;;;;;6.45;2.97;;;13.10;99.90;;;;;;4993214;28;20060;-85
2021/12/31 05:53:34;;;;;;;6.15;2.40;;;13.10;99.90;;;;;;4995123;28;20148;-86
2021/12/31 05:56:12;;;;;;;5.85;2.63;;;13.20;99.90;;;;;;4995728;28;20049;-88
2021/12/31 06:02:42;;;;;;;6.72;2.65;;;13.10;99.90;;;;;;5013289;28;20520;-86
2021/12/31 06:05:16;;;;;;;14.73;3.38;;;13.80;99.90;;;;;;4997464;28;20045;-86
2021/12/31 06:07:52;;;;;;;10.43;2.83;;;13.70;99.90;;;;;;4996864;28;20049;-86
2021/12/31 06:10:25;;;;;;;5.82;2.45;;;13.10;99.90;;;;;;4997128;28;20065;-86
2021/12/31 06:12:56;;;;;;;8.40;2.67;;;13.20;99.90;;;;;;4996254;28;20064;-88
2021/12/31 06:15:28;;;;;;;6.57;2.47;;;13.20;99.90;;;;;;4996836;28;20048;-86
2021/12/31 06:17:54;;;;;;;6.45;3.10;;;13.20;99.90;;;;;;4996865;28;20048;-85
2021/12/31 06:20:20;;;;;;;7.28;2.20;;;14.40;99.90;;;;;;4997142;28;20093;-86
2021/12/31 06:22:50;;;;;;;7.30;2.40;;;13.90;99.90;;;;;;4997386;28;20542;-86
2021/12/31 06:25:16;;;;;;;7.40;2.10;;;13.40;99.90;;;;;;4997136;28;20045;-86
2021/12/31 06:27:51;;;;;;;7.22;2.30;;;13.60;99.90;;;;;;4996646;28;20381;-86
2021/12/31 06:30:23;;;;;;;6.30;1.90;;;13.80;99.90;;;;;;4996575;28;20065;-86
2021/12/31 06:35:38;;;;;;;8.88;2.38;;;13.20;99.90;;;;;;5013567;28;20057;-86
2021/12/31 06:38:06;;;;;;;6.03;1.60;;;13.60;99.90;;;;;;4996564;28;20407;-86
2021/12/31 06:40:42;;;;;;;6.65;1.88;;;13.50;99.90;;;;;;4996796;28;20415;-86
2021/12/31 06:43:09;;;;;;;8.90;2.00;;;13.30;99.90;;;;;;4996444;28;20041;-86
2021/12/31 06:45:39;;;;;;;5.10;1.55;;;13.60;99.90;;;;;;4996482;28;20199;-86
2021/12/31 06:48:08;;;;;;;5.40;1.90;;;13.20;99.90;;;;;;4996683;28;20056;-87
2021/12/31 06:50:34;;;;;;;4.57;1.60;;;13.00;99.90;;;;;;4996590;28;20061;-86
2021/12/31 06:53:01;;;;;;;7.82;1.95;;;14.10;99.90;;;;;;4996496;28;20522;-86
2021/12/31 06:55:27;;;;;;;4.60;1.98;;;13.10;99.90;;;;;;4996182;28;20504;-86
2021/12/31 06:57:53;;;;;;;8.98;1.80;;;13.10;99.90;;;;;;4996017;28;20064;-86
2021/12/31 07:00:19;;;;;;;8.50;1.95;;;13.70;99.90;;;;;;4995992;28;20045;-88
2021/12/31 07:02:45;;;;;;;7.05;1.67;;;13.80;99.90;;;;;;4996278;28;20195;-86
2021/12/31 07:05:10;;;;;;;5.00;1.67;;;13.10;99.90;;;;;;4995752;28;20091;-87
2021/12/31 07:07:37;;;;;;;10.20;2.05;;;13.70;99.90;;;;;;4995063;28;20064;-87
2021/12/31 07:10:05;;;;;;;5.13;1.88;;;12.60;99.90;;;;;;4995983;28;20068;-87
2021/12/31 07:12:31;;;;;;;6.53;1.90;;;13.10;99.90;;;;;;4995885;28;20045;-86
2021/12/31 07:14:57;;;;;;;8.02;3.38;;;14.20;99.90;;;;;;4995731;28;20050;-86
2021/12/31 07:17:23;;;;;;;8.25;2.45;;;13.00;99.90;;;;;;4996075;28;20049;-86
2021/12/31 07:19:49;;;;;;;4.03;1.88;;;12.70;99.90;;;;;;4996168;28;20053;-86
2021/12/31 07:22:14;;;;;;;8.95;1.98;;;12.90;99.90;;;;;;4995846;28;20123;-86
2021/12/31 07:24:43;;;;;;;3.90;1.55;;;13.00;99.90;;;;;;4995744;28;20507;-86
2021/12/31 07:27:09;;;;;;;4.78;1.80;;;12.90;99.90;;;;;;4995343;28;20488;-86
2021/12/31 07:29:45;;;;;;;5.55;2.08;;;13.50;99.90;;;;;;4995009;28;20047;-86
2021/12/31 07:32:19;;;;;;;5.57;1.98;;;12.80;99.90;;;;;;4995326;28;20041;-86
2021/12/31 07:34:48;;;;;;;7.25;2.08;;;12.00;99.90;;;;;;4994276;28;20084;-86
2021/12/31 07:37:13;;;;;;;6.43;2.30;;;13.60;99.90;;;;;;4994903;28;20088;-87
2021/12/31 07:39:47;;;;;;;7.68;2.13;;;12.60;99.90;;;;;;4995175;28;20049;-87
2021/12/31 07:42:23;;;;;;;7.18;1.80;;;13.20;99.90;;;;;;4995476;28;20057;-85
2021/12/31 07:44:49;;;;;;;8.23;2.50;;;12.60;99.90;;;;;;4995221;28;20083;-85
2021/12/31 07:47:15;;;;;;;8.30;2.38;;;12.50;99.90;;;;;;4996527;28;20057;-88
2021/12/31 07:49:44;;;;;;;6.05;1.90;;;12.70;99.90;;;;;;4995500;28;20111;-87
2021/12/31 07:52:18;;;;;;;5.13;1.90;;;12.30;99.90;;;;;;4995106;28;20085;-86
2021/12/31 07:54:50;;;;;;;8.52;3.05;;;12.10;99.90;;;;;;4995636;28;20562;-85
2021/12/31 07:57:16;;;;;;;5.97;1.90;;;12.50;99.90;;;;;;4995397;28;20058;-87
2021/12/31 08:02:40;;;;;;;4.97;2.28;;;12.70;99.90;;;;;;5010944;28;20065;-86
2021/12/31 08:07:55;;;;;;;9.25;2.65;;;12.50;99.90;;;;;;5011230;28;20522;-87
2021/12/31 08:14:02;;;;;;;8.30;2.20;;;12.50;99.90;;;;;;5011201;28;20054;-86
2021/12/31 08:16:31;;;;;;;3.53;2.08;;;11.70;99.90;;;;;;4994698;28;20058;-86
2021/12/31 08:19:05;;;;;;;4.00;2.33;;;13.40;99.90;;;;;;4994472;28;20765;-86
2021/12/31 08:21:49;;;;;;;6.53;2.00;;;12.00;99.90;;;;;;4994699;28;20045;-85
2021/12/31 08:24:21;;;;;;;4.63;1.80;;;12.80;99.90;;;;;;4995083;28;20103;-87
2021/12/31 08:26:48;;;;;;;6.28;2.15;;;12.30;99.90;;;;;;4994507;28;20115;-85
2021/12/31 08:29:15;;;;;;;5.47;2.05;;;12.90;99.90;;;;;;4994974;28;20111;-86
2021/12/31 08:31:42;;;;;;;6.60;1.70;;;12.60;99.90;;;;;;4994745;28;20136;-86
2021/12/31 08:34:11;;;;;;;5.32;2.70;;;13.70;99.90;;;;;;4994605;28;20182;-86
2021/12/31 08:36:37;;;;;;;8.00;2.33;;;12.90;99.90;;;;;;4995205;28;20395;-86
2021/12/31 08:39:05;;;;;;;7.75;2.25;;;12.90;99.90;;;;;;4995416;28;20054;-88
2021/12/31 08:41:31;;;;;;;8.48;2.72;;;12.90;99.90;;;;;;4996295;28;20061;-85
2021/12/31 08:43:57;;;;;;;8.38;2.58;;;13.00;99.90;;;;;;4996269;28;20055;-85
2021/12/31 08:46:23;;;;;;;6.88;2.53;;;13.60;99.90;;;;;;5012810;28;20056;-86
2021/12/31 08:48:49;;;;;;;6.18;2.28;;;12.80;99.90;;;;;;5015115;28;20049;-87
2021/12/31 08:51:15;;;;;;;10.65;2.67;;;14.00;99.90;;;;;;5017616;28;20079;-86
2021/12/31 08:53:41;;;;;;;6.82;1.80;;;13.90;99.90;;;;;;5018277;28;20030;-87
2021/12/31 08:56:07;;;;;;;5.47;2.17;;;13.00;99.90;;;;;;5003056;28;20052;-86
2021/12/31 08:58:33;;;;;;;6.03;2.00;;;13.10;99.90;;;;;;4995025;28;20140;-86
2021/12/31 09:00:59;;;;;;;6.35;2.45;;;12.90;99.90;;;;;;4995519;28;20056;-86
2021/12/31 09:03:25;;;;;;;9.18;2.90;;;12.80;99.90;;;;;;4994565;28;20038;-87
2021/12/31 09:05:53;;;;;;;5.97;2.35;;;13.30;99.90;;;;;;4994097;28;20064;-86
2021/12/31 09:08:19;;;;;;;7.15;2.80;;;13.60;99.90;;;;;;4993642;28;20049;-86
2021/12/31 09:10:45;;;;;;;6.50;2.10;;;14.90;99.90;;;;;;4993850;28;20061;-86
2021/12/31 09:13:10;;;;;;;6.80;2.42;;;13.90;99.90;;;;;;4994090;28;20076;-86
2021/12/31 09:15:39;;;;;;;9.95;3.60;;;13.10;99.90;;;;;;4995467;28;20439;-86
2021/12/31 09:18:08;;;;;;;9.68;2.92;;;13.00;99.90;;;;;;4995510;28;20053;-86
2021/12/31 09:20:34;;;;;;;7.95;2.88;;;13.00;99.90;;;;;;4995600;28;20046;-86
2021/12/31 09:23:00;;;;;;;6.95;2.70;;;13.10;99.90;;;;;;4997394;28;20057;-87
2021/12/31 09:25:27;;;;;;;3.85;2.25;;;13.50;99.90;;;;;;4996734;28;20064;-86
2021/12/31 09:27:52;;;;;;;7.43;2.83;;;13.00;99.90;;;;;;4995492;28;20558;-86
2021/12/31 09:30:18;;;;;;;5.68;2.15;;;14.10;99.90;;;;;;4995294;28;20045;-86
2021/12/31 09:32:44;;;;;;;9.65;2.45;;;13.30;99.90;;;;;;4998392;28;20041;-86
2021/12/31 09:35:10;;;;;;;7.90;3.03;;;13.50;99.90;;;;;;4997488;28;20140;-86
2021/12/31 09:37:42;;;;;;;4.57;2.03;;;13.00;99.90;;;;;;4999579;28;20049;-88
2021/12/31 09:40:08;;;;;;;7.43;2.45;;;12.20;99.90;;;;;;5014487;28;20045;-86
2021/12/31 09:42:36;;;;;;;4.65;2.13;;;12.50;99.90;;;;;;4998049;28;20088;-86
2021/12/31 09:45:05;;;;;;;6.85;2.47;;;13.30;99.90;;;;;;4997423;28;20057;-86
2021/12/31 09:47:31;;;;;;;9.23;2.78;;;14.20;99.90;;;;;;4997877;28;20095;-86
2021/12/31 09:49:59;;;;;;;5.57;1.90;;;14.00;99.90;;;;;;4997248;28;20053;-87
2021/12/31 09:52:45;;;;;;;4.85;2.03;;;12.90;99.90;;;;;;4997633;28;20647;-86
2021/12/31 09:55:13;;;;;;;5.18;2.08;;;13.30;99.90;;;;;;4963080;28;20725;-85
2021/12/31 09:57:39;;;;;;;8.02;1.85;;;13.70;99.90;;;;;;4977761;28;20042;-86
2021/12/31 10:00:05;;;;;;;6.13;2.63;;;13.60;99.90;;;;;;4994138;28;20042;-86
2021/12/31 10:03:25;;;;;;;6.32;2.38;;;13.20;99.90;;;;;;4977701;28;20194;-86
2021/12/31 10:06:34;;;;;;;10.10;2.40;;;13.60;99.90;;;;;;4985613;28;20050;-85
2021/12/31 10:13:25;;;;;;;7.97;2.30;;;13.10;99.90;;;;;;5011616;28;20053;-85
2021/12/31 10:16:11;;;;;;;5.80;2.10;;;13.10;99.90;;;;;;4976046;28;20213;-85
2021/12/31 10:22:29;;;;;;;8.57;2.20;;;13.00;99.90;;;;;;4978389;28;20132;-86
2021/12/31 10:25:18;;;;;;;9.77;2.70;;;12.70;99.90;;;;;;4977749;28;20484;-86
2021/12/31 10:28:09;;;;;;;5.88;2.60;;;12.50;99.90;;;;;;4995092;28;20104;-87
2021/12/31 10:30:37;;;;;;;6.28;2.45;;;12.40;99.90;;;;;;4978294;28;20049;-88
2021/12/31 10:33:06;;;;;;;9.68;2.80;;;11.50;99.90;;;;;;4977810;28;20045;-87
2021/12/31 10:35:46;;;;;;;8.13;3.05;;;12.90;99.90;;;;;;4994103;28;20480;-85
2021/12/31 10:38:12;;;;;;;4.70;2.70;;;12.10;99.90;;;;;;4977738;28;20381;-86
2021/12/31 10:40:44;;;;;;;6.68;3.22;;;12.10;99.90;;;;;;4973807;28;20171;-86
2021/12/31 10:43:21;;;;;;;6.75;3.17;;;12.10;99.90;;;;;;4974461;28;20056;-86
2021/12/31 10:46:08;;;;;;;6.18;2.67;;;12.10;99.90;;;;;;4973442;28;20065;-86
2021/12/31 10:48:40;;;;;;;9.48;3.35;;;13.00;99.90;;;;;;4973681;28;20046;-86
2021/12/31 10:51:09;;;;;;;7.78;3.20;;;12.00;99.90;;;;;;4973197;28;20061;-85
2021/12/31 10:53:37;;;;;;;7.15;3.22;;;12.20;99.90;;;;;;4975495;28;20469;-86
2021/12/31 10:56:11;;;;;;;8.32;2.75;;;11.70;99.90;;;;;;4976167;28;20058;-85
2021/12/31 10:58:41;;;;;;;5.40;2.00;;;11.90;99.90;;;;;;4976142;28;20587;-86
2021/12/31 11:01:12;;;;;;;5.55;2.75;;;11.80;99.90;;;;;;4971818;28;20061;-86
2021/12/31 11:03:39;;;;;;;8.23;2.78;;;12.10;99.90;;;;;;4957140;28;20469;-86
2021/12/31 11:06:07;;;;;;;7.43;2.83;;;12.30;99.90;;;;;;4970553;28;20043;-86
2021/12/31 11:08:35;;;;;;;8.30;3.03;;;12.60;99.90;;;;;;4974974;28;20027;-86
2021/12/31 11:11:02;;;;;;;5.90;2.80;;;12.60;99.90;;;;;;4973689;28;20149;-86
2021/12/31 11:13:33;;;;;;;7.57;3.13;;;12.30;99.90;;;;;;4965501;28;20093;-86
2021/12/31 11:16:00;;;;;;;8.35;2.70;;;12.80;99.90;;;;;;4973609;28;20073;-86
2021/12/31 11:18:26;;;;;;;13.75;3.65;;;11.70;99.90;;;;;;4957413;28;20047;-86
2021/12/31 11:20:55;;;;;;;10.57;3.33;;;12.00;99.90;;;;;;4957261;28;20054;-88
2021/12/31 11:23:30;;;;;;;16.00;4.45;;;11.60;99.90;;;;;;4957683;28;20054;-88
2021/12/31 11:26:29;;;;;;;7.15;3.15;;;11.80;99.90;;;;;;4958040;28;20089;-88
2021/12/31 11:28:55;;;;;;;15.32;5.55;;;11.70;99.90;;;;;;4973434;28;20084;-87
2021/12/31 11:31:24;;;;;;;11.35;5.15;;;12.00;99.90;;;;;;4956592;28;20042;-87
2021/12/31 11:33:59;;;;;;;13.02;4.13;;;12.30;99.90;;;;;;4957116;28;20097;-87
2021/12/31 11:36:51;;;;;;;16.27;7.30;;;11.60;99.90;;;;;;4972809;28;20141;-88
2021/12/31 11:39:23;;;;;;;12.68;4.72;;;12.40;99.90;;;;;;4956435;28;20051;-88
2021/12/31 11:41:51;;;;;;;9.35;4.05;;;11.60;99.90;;;;;;4973017;28;20437;-89
2021/12/31 11:44:17;;;;;;;9.27;4.75;;;11.50;99.90;;;;;;4956084;28;20516;-89
2021/12/31 11:46:45;;;;;;;9.52;4.95;;;11.50;99.90;;;;;;4956542;28;20046;-88
2021/12/31 11:49:19;;;;;;;13.55;4.60;;;12.10;99.90;;;;;;4956637;28;20447;-88
2021/12/31 11:52:13;;;;;;;10.35;5.20;;;11.90;99.90;;;;;;4956397;28;20488;-88
2021/12/31 11:54:40;;;;;;;13.65;5.85;;;11.50;99.90;;;;;;4955938;28;20050;-88
2021/12/31 11:57:11;;;;;;;12.93;5.05;;;11.50;99.90;;;;;;4956680;28;20054;-89
2021/12/31 11:59:48;;;;;;;17.70;6.80;;;11.40;99.90;;;;;;4956667;28;20050;-89
2021/12/31 12:02:20;;;;;;;11.80;5.90;;;11.50;99.90;;;;;;4969349;28;20062;-89
2021/12/31 12:04:58;;;;;;;16.92;6.50;;;11.50;99.90;;;;;;4976090;28;20060;-90
2021/12/31 12:08:01;;;;;;;12.75;6.78;;;11.90;99.90;;;;;;4976363;28;20050;-90
2021/12/31 12:10:44;;;;;;;14.63;5.97;;;11.60;99.90;;;;;;4976131;28;20054;-89
2021/12/31 12:13:26;;;;;;;14.48;6.50;;;10.80;99.90;;;;;;4975357;28;20390;-89
2021/12/31 12:16:01;;;;;;;17.38;8.05;;;12.20;99.90;;;;;;4975994;28;20123;-90
2021/12/31 12:18:53;;;;;;;17.80;7.03;;;11.40;99.90;;;;;;4974683;28;20181;-92
2021/12/31 12:21:38;;;;;;;16.73;5.82;;;11.40;99.90;;;;;;4975497;28;20045;-88
2021/12/31 12:24:11;;;;;;;20.20;6.97;;;11.50;99.90;;;;;;4975823;28;20045;-91
2021/12/31 12:26:45;;;;;;;20.38;6.82;;;11.40;99.90;;;;;;4975789;28;20104;-89
2021/12/31 12:29:29;;;;;;;16.00;6.47;;;12.00;99.90;;;;;;4990962;28;20061;-89
2021/12/31 12:32:08;;;;;;;13.38;6.38;;;11.40;99.90;;;;;;4974907;28;20136;-88
2021/12/31 12:34:34;;;;;;;16.05;6.57;;;11.40;99.90;;;;;;4975360;28;20369;-90
2021/12/31 12:37:03;;;;;;;11.40;5.13;;;12.10;99.90;;;;;;4974661;28;20056;-88
2021/12/31 12:39:30;;;;;;;16.33;5.88;;;12.20;99.90;;;;;;4975477;28;20108;-88
2021/12/31 12:41:58;;;;;;;12.35;5.95;;;12.00;99.90;;;;;;4974669;28;20570;-89
2021/12/31 12:44:24;;;;;;;11.68;6.97;;;12.20;99.90;;;;;;4974394;28;20104;-88
2021/12/31 12:46:57;;;;;;;17.85;6.20;;;12.10;99.90;;;;;;4975066;28;20940;-89
2021/12/31 12:49:24;;;;;;;12.93;6.95;;;11.40;99.90;;;;;;4974660;28;20053;-87
2021/12/31 12:51:50;;;;;;;15.70;6.82;;;11.20;99.90;;;;;;4974400;28;20062;-89
2021/12/31 12:54:21;;;;;;;14.07;7.35;;;11.20;99.90;;;;;;4974494;28;20408;-88
2021/12/31 12:57:23;;;;;;;12.82;6.57;;;11.60;99.90;;;;;;4974249;28;20056;-88
2021/12/31 12:59:50;;;;;;;11.57;5.97;;;11.40;99.90;;;;;;4974139;28;20496;-89
2021/12/31 13:02:34;;;;;;;12.15;6.88;;;11.00;99.90;;;;;;4990391;28;20176;-89
2021/12/31 13:05:21;;;;;;;13.13;7.03;;;11.70;99.90;;;;;;4976059;28;20050;-89
2021/12/31 13:07:53;;;;;;;10.45;5.85;;;11.30;99.90;;;;;;4994548;28;20850;-88
2021/12/31 13:10:29;;;;;;;10.80;6.40;;;11.50;99.90;;;;;;4978111;28;20078;-90
2021/12/31 13:13:01;;;;;;;12.18;5.90;;;10.70;99.90;;;;;;4979243;28;20096;-90
2021/12/31 13:15:36;;;;;;;7.57;4.20;;;11.60;99.90;;;;;;4977859;28;20132;-89
2021/12/31 13:18:07;;;;;;;12.13;5.57;;;11.20;99.90;;;;;;4978867;28;20164;-88
2021/12/31 13:20:35;;;;;;;8.95;4.35;;;11.30;99.90;;;;;;4979020;28;20064;-90
2021/12/31 13:23:08;;;;;;;15.23;5.43;;;10.40;99.90;;;;;;4978682;28;20054;-88
2021/12/31 13:25:44;;;;;;;11.57;4.30;;;12.00;99.90;;;;;;4978324;28;20077;-88
2021/12/31 13:28:29;;;;;;;10.40;4.93;;;10.50;99.90;;;;;;4978556;28;20053;-88